Strona główna
METAR-TAF:

METAR-TAF

Lotnisko :

Spangdahlem, Niemcy

Szerokość geograficzna: 49-59N, Długość geograficzna: 006-42E, wysokość: 365 m

Aktualna obserwacja pogody

Raport powstał 15 minut temu, godzina 20:26 UTC
Cisza
Temperatura 17°C
Wilgotność 68%
Ciśnienie 1022 hPa
Widzialność 10 km lub więcej
Przerywane chmury na wysokości 4800 ft

METAR: ETAD 162026Z AUTO 00000KT 9999 BKN048 17/11 A3018 RMK AO2 SLP202 $

czas: 22:41 (20:41 UTC)

Prognoza

Raport powstał 2 godziny i 33 minut temu, godzina 18:08 UTC
Prognoza ważna od 16 godzina 18 UTC do 17 godzina 24 UTC
Wiatr 6 kt z kierunków zmiennych
Widzialność 10 km lub więcej
Rozproszone chmury na wysokości 4000 ft
Stopniowe zmiany
od 17 godzina 06 UTC do 17 godzina 07 UTC
Wiatr 6 kt od północno-północny wschód
Widzialność: 1704 m
bezchmurnie

TAF: ETAD 161808Z 1618/1724 VRB06KT 9999 SCT040 QNH3010INS BECMG 1706/1707 03006KT 9999 SKC QNH3004INS TX22/1712Z TN09/1704Z LAST NO AMDS AFT 1618 NEXT 1704

Obserwacja i prognoza pogody dla ponad 4000 lotnisk (raport METAR i TAF).

Dostępne stacje oznaczono żółtymi i czerwonymi punktami na mapie.

Najedź kursorem aby zobaczyć nazwę stacji.

Kliknij aby zobaczyć obserwacje i prognozy pogody.

Aby zmienić mapę: kliknij na zielony przycisk z czarnym krzyżykiem, aby powiększyć; na zielony przycisk z myślnikiem, aby pomniejszyć; na zielone strzałki, aby przejść do map sąsiednich.


METAR-TAF: